Impacts TAF Board
For situational awareness. Not to be used for flight planning purposes.
IDs:

KPHX - Phoenix/Sky Harbor, AZ, US

Issued at 2329 UTC 15 Oct 2018
Updated at 0107 UTC 16 Oct 2018
Potential Impact None Slight Moderate High
Time<<17/02Z 17/03Z 17/04Z 17/05Z 17/06Z 17/07Z 17/08Z 17/09Z 17/10Z 17/11Z 17/12Z 17/13Z 17/14Z
Type PRVL PRVL PRVL PRVL
VIS >6 >6 >6 >6
CIG 70 -- -- --
Cover BKN SCT SCT SCT
FltCat VFR VFR VFR VFR
WX -- -- -- --
WDir 70 60 60 60
WSpd 10 7 7 7
WGst -- -- -- --
Raw TAF
KPHX 152329Z 1600/1706 36007KT P6SM FEW070 SCT090
  FM160400 07010G22KT P6SM -SHRA BKN070 BKN090 OVC120
  FM160800 08013KT P6SM VCSH BKN050 OVC090
  FM161400 09012KT P6SM OVC060
  FM162100 07010KT P6SM BKN070 BKN090
  FM170300 06007KT P6SM SCT070


METAR Board
Radar Display
Forecast Discussion
For situational awareness. Not to be used for flight planning purposes.